Time;durP1;ratioP1;P1;durP2;ratioP2;P2;SDS_P1;SDS_P2;PMS_P1;PMS_P2;Temp;Humidity;BMP_temperature;BMP_pressure;BME280_temperature;BME280_humidity;BME280_pressure;Samples;Min_cycle;Max_cycle;Signal;HPM_P1;HPM_P2
2023/04/20 00:01:17;;;;;;;2.00;1.10;;;17.30;77.60;;;;;;10873830;32;20394;-69
2023/04/20 00:07:20;;;;;;;1.52;0.82;;;17.30;77.70;;;;;;10872973;32;20028;-69
2023/04/20 00:13:22;;;;;;;2.17;1.42;;;17.20;78.00;;;;;;10859685;32;20046;-69
2023/04/20 00:19:27;;;;;;;2.12;1.23;;;17.20;78.10;;;;;;10873636;32;20054;-70
2023/04/20 00:25:30;;;;;;;1.87;1.48;;;17.30;77.90;;;;;;10846317;32;20390;-69
2023/04/20 00:31:32;;;;;;;4.03;2.10;;;17.30;77.80;;;;;;10871989;32;20062;-70
2023/04/20 00:37:34;;;;;;;1.50;1.27;;;17.30;77.70;;;;;;10858392;32;20050;-70
2023/04/20 00:43:36;;;;;;;1.77;1.33;;;17.40;77.50;;;;;;10872902;32;20019;-70
2023/04/20 00:49:39;;;;;;;1.83;1.40;;;17.30;77.70;;;;;;10872713;32;20386;-69
2023/04/20 00:55:42;;;;;;;2.42;1.33;;;17.30;77.80;;;;;;10868367;32;20027;-70
2023/04/20 01:01:46;;;;;;;3.05;2.05;;;17.20;78.00;;;;;;10871067;32;20050;-70
2023/04/20 01:07:49;;;;;;;2.28;1.40;;;17.10;77.90;;;;;;10870867;32;20020;-70
2023/04/20 01:13:51;;;;;;;2.80;1.30;;;17.10;78.00;;;;;;10871681;32;20023;-70
2023/04/20 01:19:52;;;;;;;2.70;1.55;;;17.10;78.00;;;;;;10870875;32;20471;-70
2023/04/20 01:25:55;;;;;;;3.62;1.50;;;17.00;78.00;;;;;;10870840;32;20330;-70
2023/04/20 01:31:57;;;;;;;2.85;1.45;;;17.10;77.90;;;;;;10871282;32;20038;-70
2023/04/20 01:37:59;;;;;;;2.15;1.83;;;17.10;77.90;;;;;;10869832;32;20020;-70
2023/04/20 01:44:01;;;;;;;1.77;1.45;;;17.10;78.20;;;;;;10867518;32;20330;-71
2023/04/20 01:50:05;;;;;;;1.25;1.02;;;17.20;78.10;;;;;;10870407;32;20394;-71
2023/04/20 01:56:08;;;;;;;1.50;1.30;;;17.00;78.10;;;;;;10870393;32;20396;-71
2023/04/20 02:02:10;;;;;;;2.08;1.30;;;16.80;78.20;;;;;;10856371;32;20393;-71
2023/04/20 02:08:13;;;;;;;2.87;1.67;;;16.80;78.40;;;;;;10868857;32;20024;-70
2023/04/20 02:14:15;;;;;;;2.30;1.52;;;16.70;78.40;;;;;;10856231;32;20035;-71
2023/04/20 02:20:19;;;;;;;3.58;1.98;;;16.60;78.50;;;;;;10867286;32;20057;-71
2023/04/20 02:26:21;;;;;;;2.35;1.62;;;16.60;78.50;;;;;;10869463;32;20038;-71
2023/04/20 02:32:23;;;;;;;1.77;1.48;;;16.70;78.50;;;;;;10869140;32;20024;-71
2023/04/20 02:38:26;;;;;;;2.35;1.65;;;16.80;78.50;;;;;;10866739;32;20027;-70
2023/04/20 02:44:28;;;;;;;2.30;1.50;;;16.80;78.50;;;;;;10867923;32;20066;-70
2023/04/20 02:50:31;;;;;;;3.50;1.62;;;16.70;78.40;;;;;;10867890;32;20024;-71
2023/04/20 02:56:34;;;;;;;2.72;1.80;;;16.70;78.40;;;;;;10866737;32;20058;-72
2023/04/20 03:02:36;;;;;;;2.60;1.70;;;16.70;78.50;;;;;;10867174;32;20090;-71
2023/04/20 03:08:39;;;;;;;2.20;1.60;;;16.70;78.30;;;;;;10868206;32;20023;-71
2023/04/20 03:14:46;;;;;;;1.62;1.25;;;16.70;78.20;;;;;;10853033;32;20054;-71
2023/04/20 03:20:51;;;;;;;2.90;1.80;;;16.50;78.40;;;;;;10854341;32;20063;-72
2023/04/20 03:26:54;;;;;;;5.68;3.08;;;16.40;78.70;;;;;;10851949;32;20031;-72
2023/04/20 03:32:59;;;;;;;4.55;2.83;;;16.50;79.10;;;;;;10852657;32;20094;-72
2023/04/20 03:39:01;;;;;;;5.47;2.95;;;16.40;79.20;;;;;;10866346;32;20046;-73
2023/04/20 03:45:05;;;;;;;3.15;1.92;;;16.20;79.30;;;;;;10866275;32;20028;-72
2023/04/20 03:51:08;;;;;;;2.00;1.30;;;16.10;79.80;;;;;;10867649;32;20066;-72
2023/04/20 03:57:12;;;;;;;1.50;1.30;;;16.00;79.90;;;;;;10864210;32;20019;-71
2023/04/20 04:03:15;;;;;;;2.75;1.65;;;15.90;80.00;;;;;;10866388;32;20012;-72
2023/04/20 04:09:17;;;;;;;1.87;1.50;;;15.80;80.10;;;;;;10866978;32;20046;-72
2023/04/20 04:15:20;;;;;;;1.55;1.40;;;15.80;80.20;;;;;;10852376;32;20027;-71
2023/04/20 04:21:23;;;;;;;3.28;2.50;;;16.00;79.90;;;;;;10865396;32;20023;-70
2023/04/20 04:27:28;;;;;;;3.22;1.95;;;16.00;80.20;;;;;;10866600;32;20028;-72
2023/04/20 04:33:38;;;;;;;3.80;2.28;;;16.00;80.30;;;;;;10853226;32;20433;-72
2023/04/20 04:39:40;;;;;;;2.15;1.77;;;16.10;80.50;;;;;;10872352;32;20349;-75
2023/04/20 04:45:44;;;;;;;4.07;2.35;;;16.10;80.90;;;;;;10871992;32;20027;-75
2023/04/20 04:51:47;;;;;;;4.43;2.97;;;16.00;80.50;;;;;;10872553;32;20042;-75
2023/04/20 04:57:50;;;;;;;15.25;3.58;;;15.90;81.00;;;;;;10871943;32;20323;-75
2023/04/20 05:04:16;;;;;;;2.90;1.73;;;15.90;81.10;;;;;;10872464;32;20019;-75
2023/04/20 05:10:19;;;;;;;4.05;2.70;;;16.00;80.90;;;;;;10872700;32;20050;-75
2023/04/20 05:16:21;;;;;;;3.05;1.80;;;16.20;80.60;;;;;;10870795;32;20024;-73
2023/04/20 05:22:29;;;;;;;4.18;2.17;;;16.20;80.50;;;;;;10858417;32;20322;-75
2023/04/20 05:28:33;;;;;;;1.62;1.48;;;16.30;80.60;;;;;;10870794;32;20038;-74
2023/04/20 05:34:35;;;;;;;2.92;2.15;;;16.30;80.80;;;;;;10868516;32;20027;-75
2023/04/20 05:40:37;;;;;;;2.40;1.90;;;16.20;81.30;;;;;;10856815;32;20024;-75
2023/04/20 05:46:40;;;;;;;2.85;2.33;;;16.20;81.20;;;;;;10868036;32;20023;-75
2023/04/20 05:52:42;;;;;;;4.82;3.33;;;16.30;81.00;;;;;;10870171;32;20019;-74
2023/04/20 05:58:44;;;;;;;3.90;2.70;;;16.20;81.00;;;;;;10870488;32;20421;-74
2023/04/20 06:04:46;;;;;;;3.67;2.17;;;16.00;81.10;;;;;;10857317;32;20284;-74
2023/04/20 06:10:56;;;;;;;3.25;2.62;;;16.00;81.60;;;;;;10868714;32;20082;-73
2023/04/20 06:16:58;;;;;;;2.80;1.92;;;16.00;81.90;;;;;;10838469;32;20039;-74
2023/04/20 06:23:00;;;;;;;4.60;2.47;;;16.20;81.60;;;;;;10869423;32;20020;-74
2023/04/20 06:29:02;;;;;;;4.45;2.50;;;16.30;81.60;;;;;;10868818;32;20046;-73
2023/04/20 06:35:06;;;;;;;4.18;2.67;;;16.20;81.70;;;;;;10869083;32;20334;-73
2023/04/20 06:41:08;;;;;;;3.37;2.28;;;16.20;81.90;;;;;;10855456;32;20019;-73
2023/04/20 06:47:10;;;;;;;5.30;4.03;;;16.00;82.10;;;;;;10868125;32;20334;-73
2023/04/20 06:53:12;;;;;;;7.00;5.10;;;16.00;82.20;;;;;;10853743;32;20039;-73
2023/04/20 06:59:18;;;;;;;5.40;3.60;;;15.90;82.00;;;;;;10866957;32;20054;-73
2023/04/20 07:05:20;;;;;;;5.05;3.03;;;15.80;82.50;;;;;;10853518;32;20303;-73
2023/04/20 07:11:23;;;;;;;2.92;2.17;;;16.00;82.40;;;;;;10868031;32;20031;-73
2023/04/20 07:17:30;;;;;;;3.62;2.72;;;16.10;82.40;;;;;;10867011;32;20019;-75
2023/04/20 07:23:32;;;;;;;6.68;4.62;;;16.30;82.50;;;;;;10848933;32;20035;-73
2023/04/20 07:29:34;;;;;;;8.00;5.28;;;16.30;82.40;;;;;;10854367;32;20321;-73
2023/04/20 07:35:36;;;;;;;7.65;5.12;;;16.20;82.40;;;;;;10864973;32;20058;-73
2023/04/20 07:41:38;;;;;;;5.62;4.25;;;16.20;82.30;;;;;;10867456;32;20052;-73
2023/04/20 07:47:42;;;;;;;5.70;3.90;;;16.20;82.40;;;;;;10867182;32;20341;-73
2023/04/20 07:53:44;;;;;;;6.87;3.80;;;16.20;82.20;;;;;;10651530;27;7196115;-73
2023/04/20 07:59:47;;;;;;;6.72;4.15;;;16.20;82.10;;;;;;10865615;32;20031;-73
2023/04/20 08:05:49;;;;;;;6.30;4.05;;;16.20;82.30;;;;;;10853692;32;20051;-74
2023/04/20 08:11:51;;;;;;;8.90;4.55;;;16.30;82.30;;;;;;10871437;32;20338;-73
2023/04/20 08:17:54;;;;;;;6.40;3.75;;;16.30;82.20;;;;;;10858682;32;20426;-73
2023/04/20 08:23:56;;;;;;;7.60;5.68;;;16.20;82.40;;;;;;10873194;32;20444;-73
2023/04/20 08:29:58;;;;;;;13.95;7.80;;;16.40;82.30;;;;;;10872948;32;20023;-73
2023/04/20 08:36:00;;;;;;;7.32;5.00;;;16.40;81.70;;;;;;10858497;32;20040;-73
2023/04/20 08:42:02;;;;;;;11.57;9.00;;;16.50;82.10;;;;;;10873050;32;20291;-74
2023/04/20 08:48:07;;;;;;;6.62;4.65;;;16.70;82.00;;;;;;10872168;32;20016;-74
2023/04/20 08:54:10;;;;;;;5.60;3.58;;;16.70;82.10;;;;;;10871957;32;20069;-73
2023/04/20 09:00:14;;;;;;;8.82;7.57;;;16.80;82.10;;;;;;10871889;32;20016;-74
2023/04/20 09:06:17;;;;;;;9.50;6.82;;;16.90;82.30;;;;;;10871090;32;20053;-73
2023/04/20 09:12:19;;;;;;;8.05;5.37;;;16.90;82.40;;;;;;10869513;32;20081;-74
2023/04/20 09:18:23;;;;;;;11.95;7.85;;;16.80;82.10;;;;;;10871185;32;20373;-74
2023/04/20 09:24:34;;;;;;;8.40;6.37;;;17.20;81.90;;;;;;10870557;32;20398;-73
2023/04/20 09:30:47;;;;;;;12.75;8.25;;;17.20;81.60;;;;;;10870668;32;20346;-73
2023/04/20 09:36:53;;;;;;;10.20;6.72;;;17.20;81.80;;;;;;10868979;32;20077;-74
2023/04/20 09:43:01;;;;;;;12.35;7.35;;;17.00;81.10;;;;;;10871537;32;20015;-74
2023/04/20 09:49:06;;;;;;;;;;;16.80;81.70;;;;;;10871655;32;20394;-74
2023/04/20 09:55:10;;;;;;;8.52;5.30;;;16.80;82.00;;;;;;10843258;32;19973;-73
2023/04/20 10:01:12;;;;;;;8.93;6.85;;;16.70;82.20;;;;;;10870922;32;20390;-74
2023/04/20 10:07:26;;;;;;;5.70;3.90;;;16.60;81.40;;;;;;10865947;32;20023;-73
2023/04/20 10:13:32;;;;;;;7.05;4.85;;;16.50;81.40;;;;;;10865194;32;20027;-74
2023/04/20 10:19:44;;;;;;;6.53;4.70;;;16.50;81.60;;;;;;10856936;32;20322;-75
2023/04/20 10:25:59;;;;;;;10.95;5.95;;;16.40;82.10;;;;;;10869344;32;20020;-74
2023/04/20 10:32:01;;;;;;;7.50;4.05;;;16.40;81.90;;;;;;10855615;32;20028;-74
2023/04/20 10:38:03;;;;;;;7.55;4.90;;;16.30;82.00;;;;;;10855938;32;20310;-74
2023/04/20 10:44:07;;;;;;;5.55;3.97;;;16.40;82.20;;;;;;10867523;32;20054;-74
2023/04/20 10:50:13;;;;;;;6.57;4.47;;;16.40;82.40;;;;;;10854735;32;20023;-73
2023/04/20 10:56:20;;;;;;;5.17;4.33;;;16.30;82.30;;;;;;10867237;32;20054;-75
2023/04/20 11:02:22;;;;;;;9.18;5.62;;;16.30;82.30;;;;;;10866765;32;20015;-74
2023/04/20 11:08:41;;;;;;;6.32;3.92;;;16.30;82.90;;;;;;10854836;32;20030;-76
2023/04/20 11:14:51;;;;;;;6.97;4.35;;;16.20;82.60;;;;;;10854623;32;20020;-75
2023/04/20 11:20:55;;;;;;;7.82;3.55;;;16.20;82.40;;;;;;10866242;32;20042;-74
2023/04/20 11:27:03;;;;;;;7.25;5.55;;;16.20;82.90;;;;;;10866912;32;20024;-73
2023/04/20 11:33:09;;;;;;;7.15;5.62;;;16.20;82.80;;;;;;10867354;32;20023;-73
2023/04/20 11:39:13;;;;;;;7.97;6.32;;;16.20;82.30;;;;;;10867179;32;20333;-74
2023/04/20 11:45:16;;;;;;;9.88;7.00;;;16.00;82.00;;;;;;10868393;32;20024;-74
2023/04/20 11:51:19;;;;;;;7.80;5.45;;;16.00;82.20;;;;;;10861241;32;20341;-76
2023/04/20 11:57:48;;;;;;;5.53;4.15;;;15.80;82.20;;;;;;10859936;32;20027;-74
2023/04/20 12:03:54;;;;;;;;;;;15.90;82.90;;;;;;10873415;32;20031;-73
2023/04/20 12:09:56;;;;;;;6.57;4.53;;;15.80;82.30;;;;;;10873056;32;19923;-73
2023/04/20 12:15:59;;;;;;;11.20;8.50;;;15.70;82.50;;;;;;10873543;32;20038;-71
2023/04/20 12:22:03;;;;;;;7.53;5.90;;;15.80;82.80;;;;;;10872845;32;20050;-73
2023/04/20 12:28:06;;;;;;;4.55;3.62;;;15.90;82.30;;;;;;10869861;32;20397;-74
2023/04/20 12:34:08;;;;;;;6.00;4.20;;;15.90;82.50;;;;;;10873577;32;20046;-71
2023/04/20 12:40:11;;;;;;;5.62;4.30;;;15.90;83.00;;;;;;10859112;32;20031;-71
2023/04/20 12:46:14;;;;;;;6.45;3.47;;;15.90;83.20;;;;;;10872288;32;20024;-71
2023/04/20 12:52:17;;;;;;;9.32;7.25;;;16.00;83.30;;;;;;10858003;32;20027;-73
2023/04/20 12:58:19;;;;;;;6.03;3.45;;;15.80;81.60;;;;;;10858625;32;20059;-71
2023/04/20 13:04:21;;;;;;;5.45;3.60;;;15.70;82.60;;;;;;10843002;32;20028;-71
2023/04/20 13:10:23;;;;;;;5.53;4.12;;;15.80;83.30;;;;;;10835210;32;20437;-74
2023/04/20 13:16:26;;;;;;;5.45;3.83;;;15.90;83.50;;;;;;10830160;32;20027;-70
2023/04/20 13:22:44;;;;;;;7.87;6.75;;;15.90;83.80;;;;;;10833672;32;20028;-70
2023/04/20 13:28:47;;;;;;;5.90;3.83;;;16.00;83.50;;;;;;10832723;32;20354;-72
2023/04/20 13:34:50;;;;;;;5.78;4.85;;;16.00;83.00;;;;;;10868806;32;20396;-71
2023/04/20 13:40:59;;;;;;;8.43;4.37;;;16.10;83.60;;;;;;10870711;32;20528;-71
2023/04/20 13:47:01;;;;;;;9.85;6.72;;;16.20;83.40;;;;;;10857110;32;20012;-73
2023/04/20 13:53:03;;;;;;;6.55;4.93;;;16.20;83.30;;;;;;10869569;32;20045;-72
2023/04/20 13:59:06;;;;;;;7.57;3.87;;;15.90;82.10;;;;;;10870031;32;20019;-72
2023/04/20 14:05:09;;;;;;;5.93;4.40;;;15.80;83.50;;;;;;10869520;32;20012;-72
2023/04/20 14:11:11;;;;;;;6.10;4.57;;;15.90;83.20;;;;;;10869752;32;20447;-72
2023/04/20 14:17:13;;;;;;;5.18;3.28;;;15.80;83.40;;;;;;10848059;32;20023;-70
2023/04/20 14:23:15;;;;;;;6.28;4.12;;;15.80;83.90;;;;;;10867105;32;20019;-70
2023/04/20 14:29:17;;;;;;;5.85;3.72;;;15.70;84.00;;;;;;10865529;32;20032;-70
2023/04/20 14:35:19;;;;;;;5.07;3.47;;;15.80;83.60;;;;;;10869227;32;20004;-70
2023/04/20 14:41:21;;;;;;;4.30;3.45;;;15.80;83.90;;;;;;10853930;32;20039;-71
2023/04/20 14:47:23;;;;;;;5.18;3.67;;;15.70;83.70;;;;;;10842920;32;20345;-72
2023/04/20 14:53:25;;;;;;;7.12;4.65;;;15.60;83.50;;;;;;10853855;32;20353;-71
2023/04/20 14:59:27;;;;;;;6.37;4.35;;;15.60;83.70;;;;;;10855121;32;20038;-72
2023/04/20 15:05:30;;;;;;;5.05;3.35;;;15.50;83.60;;;;;;10867758;32;20365;-71
2023/04/20 15:11:32;;;;;;;5.40;4.60;;;15.50;83.90;;;;;;10866097;32;20015;-69
2023/04/20 15:17:35;;;;;;;6.15;4.07;;;15.60;84.00;;;;;;10854782;32;20317;-74
2023/04/20 15:23:37;;;;;;;6.18;4.68;;;15.60;84.10;;;;;;10841168;32;20373;-72
2023/04/20 15:29:39;;;;;;;8.80;6.43;;;15.70;84.20;;;;;;10867882;32;20027;-72
2023/04/20 15:35:41;;;;;;;5.20;3.92;;;15.60;83.20;;;;;;10876745;32;20026;-73
2023/04/20 15:41:43;;;;;;;5.70;3.95;;;15.50;82.90;;;;;;10864486;32;20019;-71
2023/04/20 15:47:45;;;;;;;3.53;2.53;;;15.50;83.70;;;;;;10866039;32;20038;-70
2023/04/20 15:53:49;;;;;;;7.43;4.70;;;15.50;84.20;;;;;;10855207;27;20050;-70
2023/04/20 15:59:51;;;;;;;5.50;3.42;;;15.60;84.20;;;;;;10867176;32;20046;-70
2023/04/20 16:05:53;;;;;;;6.78;4.22;;;15.50;83.20;;;;;;10866997;32;20042;-70
2023/04/20 16:11:55;;;;;;;8.70;6.70;;;15.50;83.30;;;;;;10865342;32;20019;-71
2023/04/20 16:17:58;;;;;;;6.68;4.40;;;15.40;83.20;;;;;;10866214;32;20019;-71
2023/04/20 16:24:00;;;;;;;4.55;3.10;;;15.40;83.50;;;;;;10866745;32;20059;-71
2023/04/20 16:30:03;;;;;;;5.97;3.90;;;15.50;83.60;;;;;;10867753;32;20024;-69
2023/04/20 16:36:05;;;;;;;6.03;3.67;;;15.70;83.70;;;;;;10873370;32;20016;-71
2023/04/20 16:42:07;;;;;;;4.40;2.55;;;16.10;82.80;;;;;;10872441;32;20042;-71
2023/04/20 16:48:09;;;;;;;5.55;4.10;;;16.20;83.30;;;;;;10872966;32;20011;-70
2023/04/20 16:54:11;;;;;;;5.82;4.10;;;16.70;83.70;;;;;;10854740;32;20369;-71
2023/04/20 17:00:14;;;;;;;4.80;3.08;;;17.10;83.20;;;;;;10871974;32;20402;-70
2023/04/20 17:06:16;;;;;;;4.78;3.35;;;16.90;83.40;;;;;;10872223;32;20016;-71
2023/04/20 17:12:18;;;;;;;3.28;2.22;;;17.20;84.40;;;;;;10872182;32;20023;-72
2023/04/20 17:18:20;;;;;;;4.12;2.58;;;16.80;84.40;;;;;;10857071;32;20316;-71
2023/04/20 17:24:22;;;;;;;4.10;2.95;;;16.30;84.50;;;;;;10871154;32;20377;-71
2023/04/20 17:30:24;;;;;;;5.20;3.22;;;16.10;84.80;;;;;;10871643;32;20338;-71
2023/04/20 17:36:26;;;;;;;2.78;2.50;;;15.80;83.40;;;;;;10871254;32;20016;-71
2023/04/20 17:42:28;;;;;;;5.20;3.22;;;15.70;84.20;;;;;;10872672;32;20023;-71
2023/04/20 17:48:30;;;;;;;4.57;3.20;;;15.50;83.50;;;;;;10889456;32;20062;-70
2023/04/20 17:54:33;;;;;;;4.22;2.67;;;15.40;83.50;;;;;;10906649;32;20386;-70
2023/04/20 18:00:35;;;;;;;3.37;2.20;;;15.40;83.30;;;;;;10894766;32;20046;-70
2023/04/20 18:06:37;;;;;;;4.50;3.67;;;15.40;83.10;;;;;;10907249;32;20039;-71
2023/04/20 18:12:39;;;;;;;4.10;2.97;;;15.30;83.10;;;;;;10904526;32;20023;-71
2023/04/20 18:18:41;;;;;;;4.05;2.20;;;15.30;83.00;;;;;;10877420;32;20433;-71
2023/04/20 18:24:43;;;;;;;4.78;2.58;;;15.30;83.00;;;;;;10869514;32;20282;-71
2023/04/20 18:30:46;;;;;;;2.00;1.75;;;15.30;83.10;;;;;;10868168;32;20059;-71
2023/04/20 18:36:48;;;;;;;4.37;2.37;;;15.30;83.00;;;;;;10863944;32;20020;-71
2023/04/20 18:42:50;;;;;;;4.50;2.35;;;15.30;83.10;;;;;;10841796;32;20551;-71
2023/04/20 18:48:52;;;;;;;3.60;2.50;;;15.30;82.50;;;;;;10867035;32;20015;-71
2023/04/20 18:54:54;;;;;;;4.90;2.47;;;15.20;82.30;;;;;;10824392;32;20319;-71
2023/04/20 19:00:57;;;;;;;4.95;2.72;;;15.20;82.00;;;;;;10825992;32;20028;-71
2023/04/20 19:06:59;;;;;;;4.37;3.00;;;15.20;82.10;;;;;;10826273;32;20016;-71
2023/04/20 19:13:01;;;;;;;3.83;2.90;;;15.20;82.10;;;;;;10822730;32;20035;-71
2023/04/20 19:19:04;;;;;;;3.70;2.97;;;15.10;81.80;;;;;;10822986;32;20062;-71
2023/04/20 19:25:07;;;;;;;4.10;2.03;;;15.10;81.90;;;;;;10827860;32;20051;-71
2023/04/20 19:31:09;;;;;;;3.42;2.45;;;15.10;82.10;;;;;;10829740;32;20026;-71
2023/04/20 19:37:11;;;;;;;4.68;3.10;;;15.10;82.20;;;;;;10826439;32;20448;-71
2023/04/20 19:43:15;;;;;;;6.25;2.55;;;15.10;82.10;;;;;;10834129;32;20058;-71
2023/04/20 19:49:18;;;;;;;3.28;2.65;;;15.10;82.20;;;;;;10848806;32;20032;-71
2023/04/20 19:55:20;;;;;;;3.03;2.10;;;15.10;82.30;;;;;;10862959;32;20015;-71
2023/04/20 20:01:22;;;;;;;2.78;2.22;;;15.10;82.30;;;;;;10851999;32;20035;-71
2023/04/20 20:07:25;;;;;;;2.83;2.28;;;15.10;82.40;;;;;;10867723;32;20039;-71
2023/04/20 20:13:27;;;;;;;4.07;2.58;;;15.10;82.60;;;;;;10860942;32;20042;-71
2023/04/20 20:19:29;;;;;;;3.92;2.83;;;15.20;82.70;;;;;;10858452;32;20050;-71
2023/04/20 20:25:31;;;;;;;3.50;2.87;;;15.20;83.00;;;;;;10873650;32;20447;-71
2023/04/20 20:31:34;;;;;;;3.62;2.22;;;15.20;83.00;;;;;;10871091;32;20046;-71
2023/04/20 20:37:37;;;;;;;2.87;2.05;;;15.20;82.80;;;;;;10861126;32;20050;-71
2023/04/20 20:43:42;;;;;;;3.58;2.42;;;15.20;82.90;;;;;;10872599;32;20023;-71
2023/04/20 20:49:44;;;;;;;3.92;2.30;;;15.20;82.90;;;;;;10873170;32;20381;-72
2023/04/20 20:55:46;;;;;;;4.53;2.40;;;15.20;83.00;;;;;;10871686;32;20330;-71
2023/04/20 21:01:48;;;;;;;3.00;2.30;;;15.20;82.90;;;;;;10872250;32;20054;-72
2023/04/20 21:07:50;;;;;;;3.42;2.03;;;15.10;83.00;;;;;;10858733;32;20047;-73
2023/04/20 21:13:53;;;;;;;3.12;1.83;;;15.20;83.00;;;;;;10857398;32;20031;-73
2023/04/20 21:19:55;;;;;;;5.28;3.10;;;15.10;83.00;;;;;;10871898;32;20079;-72
2023/04/20 21:25:57;;;;;;;7.65;5.85;;;15.10;82.90;;;;;;10857222;32;20421;-72
2023/04/20 21:31:59;;;;;;;6.60;3.83;;;14.90;82.70;;;;;;10867937;32;20011;-71
2023/04/20 21:38:03;;;;;;;5.00;3.20;;;14.70;82.60;;;;;;10857592;32;20447;-72
2023/04/20 21:44:05;;;;;;;6.12;4.05;;;14.70;82.80;;;;;;10871390;32;20015;-73
2023/04/20 21:50:09;;;;;;;6.43;3.97;;;14.70;82.80;;;;;;10870838;32;20054;-72
2023/04/20 21:56:13;;;;;;;5.35;3.50;;;14.60;82.40;;;;;;10855883;32;20094;-70
2023/04/20 22:02:15;;;;;;;4.50;3.20;;;14.50;82.50;;;;;;10869416;32;20019;-71
2023/04/20 22:08:20;;;;;;;5.30;3.47;;;14.50;82.90;;;;;;10867659;32;20035;-71
2023/04/20 22:14:22;;;;;;;6.97;4.80;;;14.50;82.80;;;;;;10870218;32;20050;-71
2023/04/20 22:20:26;;;;;;;8.50;4.37;;;14.60;82.90;;;;;;10851098;32;20031;-70
2023/04/20 22:26:30;;;;;;;4.55;3.30;;;14.60;83.10;;;;;;10869259;32;20337;-71
2023/04/20 22:32:34;;;;;;;6.37;5.28;;;14.60;83.40;;;;;;10869491;32;20019;-71
2023/04/20 22:38:36;;;;;;;4.60;3.30;;;14.60;83.40;;;;;;10855905;32;20046;-71
2023/04/20 22:44:38;;;;;;;8.55;6.82;;;14.70;83.40;;;;;;10868619;32;20011;-71
2023/04/20 22:50:41;;;;;;;7.60;5.07;;;14.70;83.50;;;;;;10853783;32;20066;-71
2023/04/20 22:56:43;;;;;;;5.50;3.87;;;14.70;83.60;;;;;;10867196;32;20034;-71
2023/04/20 23:02:45;;;;;;;6.15;3.67;;;14.70;83.50;;;;;;10862284;32;20387;-71
2023/04/20 23:08:48;;;;;;;5.78;4.28;;;14.70;83.70;;;;;;10866338;32;20011;-71
2023/04/20 23:14:50;;;;;;;3.83;3.00;;;14.70;83.80;;;;;;10851890;32;20295;-70
2023/04/20 23:20:52;;;;;;;4.00;3.15;;;14.70;84.00;;;;;;10864282;32;20023;-70
2023/04/20 23:26:55;;;;;;;8.38;6.22;;;14.70;84.00;;;;;;10848853;32;20076;-70
2023/04/20 23:32:57;;;;;;;7.12;3.92;;;14.70;84.00;;;;;;10852971;32;20042;-71
2023/04/20 23:39:00;;;;;;;6.32;3.83;;;14.60;84.40;;;;;;10850349;32;20062;-70
2023/04/20 23:45:06;;;;;;;4.32;3.03;;;14.50;84.60;;;;;;10865388;32;20307;-71
2023/04/20 23:51:09;;;;;;;5.75;3.40;;;14.60;84.60;;;;;;10601748;27;8898892;-71
2023/04/20 23:57:11;;;;;;;4.53;2.90;;;14.60;84.70;;;;;;10867178;32;20019;-71
